sensor_id;sensor_type;location;lat;lon;timestamp;P1;durP1;ratioP1;P2;durP2;ratioP2
10430;SDS011;5262;59.958;17.726;2023-02-11T00:01:36;3.83;;;1.07;;
10430;SDS011;5262;59.958;17.726;2023-02-11T00:04:03;1.63;;;1.00;;
10430;SDS011;5262;59.958;17.726;2023-02-11T00:06:30;4.73;;;1.30;;
10430;SDS011;5262;59.958;17.726;2023-02-11T00:08:57;3.07;;;1.10;;
10430;SDS011;5262;59.958;17.726;2023-02-11T00:11:23;2.47;;;0.90;;
10430;SDS011;5262;59.958;17.726;2023-02-11T00:13:54;1.70;;;1.00;;
10430;SDS011;5262;59.958;17.726;2023-02-11T00:16:20;2.63;;;1.20;;
10430;SDS011;5262;59.958;17.726;2023-02-11T00:18:46;1.93;;;1.00;;
10430;SDS011;5262;59.958;17.726;2023-02-11T00:21:14;5.73;;;1.10;;
10430;SDS011;5262;59.958;17.726;2023-02-11T00:23:42;3.83;;;0.97;;
10430;SDS011;5262;59.958;17.726;2023-02-11T00:28:37;2.03;;;1.03;;
10430;SDS011;5262;59.958;17.726;2023-02-11T00:31:02;2.70;;;1.30;;
10430;SDS011;5262;59.958;17.726;2023-02-11T00:33:28;4.07;;;1.00;;
10430;SDS011;5262;59.958;17.726;2023-02-11T00:35:54;2.50;;;1.00;;
10430;SDS011;5262;59.958;17.726;2023-02-11T00:38:19;2.90;;;1.10;;
10430;SDS011;5262;59.958;17.726;2023-02-11T00:40:45;3.37;;;1.20;;
10430;SDS011;5262;59.958;17.726;2023-02-11T00:43:11;2.93;;;1.03;;
10430;SDS011;5262;59.958;17.726;2023-02-11T00:45:36;5.10;;;1.40;;
10430;SDS011;5262;59.958;17.726;2023-02-11T00:48:02;3.43;;;1.10;;
10430;SDS011;5262;59.958;17.726;2023-02-11T00:50:27;3.73;;;1.30;;
10430;SDS011;5262;59.958;17.726;2023-02-11T00:52:53;5.37;;;1.30;;
10430;SDS011;5262;59.958;17.726;2023-02-11T00:55:19;4.73;;;1.13;;
10430;SDS011;5262;59.958;17.726;2023-02-11T00:57:44;7.47;;;1.20;;
10430;SDS011;5262;59.958;17.726;2023-02-11T01:00:10;4.80;;;1.33;;
10430;SDS011;5262;59.958;17.726;2023-02-11T01:02:38;7.27;;;1.40;;
10430;SDS011;5262;59.958;17.726;2023-02-11T01:05:04;3.57;;;1.30;;
10430;SDS011;5262;59.958;17.726;2023-02-11T01:07:30;3.03;;;1.53;;
10430;SDS011;5262;59.958;17.726;2023-02-11T01:09:56;4.93;;;1.50;;
10430;SDS011;5262;59.958;17.726;2023-02-11T01:12:21;6.43;;;1.90;;
10430;SDS011;5262;59.958;17.726;2023-02-11T01:14:47;6.97;;;1.70;;
10430;SDS011;5262;59.958;17.726;2023-02-11T01:17:13;6.70;;;1.93;;
10430;SDS011;5262;59.958;17.726;2023-02-11T01:19:38;7.50;;;2.13;;
10430;SDS011;5262;59.958;17.726;2023-02-11T01:22:04;7.40;;;1.90;;
10430;SDS011;5262;59.958;17.726;2023-02-11T01:24:30;6.33;;;2.03;;
10430;SDS011;5262;59.958;17.726;2023-02-11T01:26:55;4.43;;;1.50;;
10430;SDS011;5262;59.958;17.726;2023-02-11T01:29:21;5.77;;;1.80;;
10430;SDS011;5262;59.958;17.726;2023-02-11T01:31:47;7.80;;;2.43;;
10430;SDS011;5262;59.958;17.726;2023-02-11T01:34:13;7.47;;;1.90;;
10430;SDS011;5262;59.958;17.726;2023-02-11T01:36:39;4.70;;;1.30;;
10430;SDS011;5262;59.958;17.726;2023-02-11T01:39:05;6.13;;;1.80;;
10430;SDS011;5262;59.958;17.726;2023-02-11T01:41:32;6.97;;;1.93;;
10430;SDS011;5262;59.958;17.726;2023-02-11T01:44:20;8.50;;;1.53;;
10430;SDS011;5262;59.958;17.726;2023-02-11T01:46:46;4.97;;;2.00;;
10430;SDS011;5262;59.958;17.726;2023-02-11T01:49:14;6.17;;;1.93;;
10430;SDS011;5262;59.958;17.726;2023-02-11T01:51:47;5.47;;;1.70;;
10430;SDS011;5262;59.958;17.726;2023-02-11T01:54:19;3.97;;;1.80;;
10430;SDS011;5262;59.958;17.726;2023-02-11T01:57:05;5.80;;;1.90;;
10430;SDS011;5262;59.958;17.726;2023-02-11T01:59:51;4.33;;;1.83;;
10430;SDS011;5262;59.958;17.726;2023-02-11T02:10:43;5.83;;;1.50;;
10430;SDS011;5262;59.958;17.726;2023-02-11T02:13:11;9.10;;;1.87;;
10430;SDS011;5262;59.958;17.726;2023-02-11T02:15:38;12.17;;;2.07;;
10430;SDS011;5262;59.958;17.726;2023-02-11T02:20:46;8.83;;;1.33;;
10430;SDS011;5262;59.958;17.726;2023-02-11T02:23:44;4.40;;;1.40;;
10430;SDS011;5262;59.958;17.726;2023-02-11T02:35:11;3.87;;;0.90;;
10430;SDS011;5262;59.958;17.726;2023-02-11T02:41:04;2.53;;;0.73;;
10430;SDS011;5262;59.958;17.726;2023-02-11T02:43:36;3.33;;;1.10;;
10430;SDS011;5262;59.958;17.726;2023-02-11T02:46:09;1.83;;;0.77;;
10430;SDS011;5262;59.958;17.726;2023-02-11T02:48:39;3.60;;;0.80;;
10430;SDS011;5262;59.958;17.726;2023-02-11T02:56:30;1.50;;;0.70;;
10430;SDS011;5262;59.958;17.726;2023-02-11T02:59:12;1.50;;;0.60;;
10430;SDS011;5262;59.958;17.726;2023-02-11T03:02:15;0.90;;;0.50;;
10430;SDS011;5262;59.958;17.726;2023-02-11T03:05:22;1.23;;;0.60;;
10430;SDS011;5262;59.958;17.726;2023-02-11T03:08:08;3.13;;;0.60;;
10430;SDS011;5262;59.958;17.726;2023-02-11T03:10:45;1.83;;;0.80;;
10430;SDS011;5262;59.958;17.726;2023-02-11T03:13:15;2.53;;;0.50;;
10430;SDS011;5262;59.958;17.726;2023-02-11T03:15:44;0.77;;;0.40;;
10430;SDS011;5262;59.958;17.726;2023-02-11T03:18:15;3.80;;;0.40;;
10430;SDS011;5262;59.958;17.726;2023-02-11T03:20:43;2.00;;;0.80;;
10430;SDS011;5262;59.958;17.726;2023-02-11T03:23:27;1.27;;;0.40;;
10430;SDS011;5262;59.958;17.726;2023-02-11T03:26:17;1.00;;;0.50;;
10430;SDS011;5262;59.958;17.726;2023-02-11T03:28:54;2.30;;;0.70;;
10430;SDS011;5262;59.958;17.726;2023-02-11T03:34:22;3.10;;;0.70;;
10430;SDS011;5262;59.958;17.726;2023-02-11T03:37:01;1.80;;;0.53;;
10430;SDS011;5262;59.958;17.726;2023-02-11T03:39:36;1.73;;;0.50;;
10430;SDS011;5262;59.958;17.726;2023-02-11T03:42:05;1.10;;;0.60;;
10430;SDS011;5262;59.958;17.726;2023-02-11T03:44:38;4.20;;;0.60;;
10430;SDS011;5262;59.958;17.726;2023-02-11T03:47:08;1.53;;;0.53;;
10430;SDS011;5262;59.958;17.726;2023-02-11T03:49:36;2.00;;;0.50;;
10430;SDS011;5262;59.958;17.726;2023-02-11T03:52:04;3.23;;;0.60;;
10430;SDS011;5262;59.958;17.726;2023-02-11T03:54:32;3.57;;;0.87;;
10430;SDS011;5262;59.958;17.726;2023-02-11T03:56:59;1.97;;;0.50;;
10430;SDS011;5262;59.958;17.726;2023-02-11T03:59:26;1.17;;;0.50;;
10430;SDS011;5262;59.958;17.726;2023-02-11T04:01:52;2.97;;;1.00;;
10430;SDS011;5262;59.958;17.726;2023-02-11T04:04:18;3.83;;;0.63;;
10430;SDS011;5262;59.958;17.726;2023-02-11T04:06:43;2.90;;;0.60;;
10430;SDS011;5262;59.958;17.726;2023-02-11T04:09:09;1.77;;;0.50;;
10430;SDS011;5262;59.958;17.726;2023-02-11T04:11:35;0.90;;;0.47;;
10430;SDS011;5262;59.958;17.726;2023-02-11T04:14:07;0.90;;;0.60;;
10430;SDS011;5262;59.958;17.726;2023-02-11T04:16:32;2.77;;;0.47;;
10430;SDS011;5262;59.958;17.726;2023-02-11T04:18:58;1.67;;;0.70;;
10430;SDS011;5262;59.958;17.726;2023-02-11T04:21:24;3.67;;;0.90;;
10430;SDS011;5262;59.958;17.726;2023-02-11T04:23:50;2.23;;;0.73;;
10430;SDS011;5262;59.958;17.726;2023-02-11T04:26:15;2.57;;;1.00;;
10430;SDS011;5262;59.958;17.726;2023-02-11T04:28:41;1.33;;;0.67;;
10430;SDS011;5262;59.958;17.726;2023-02-11T04:31:07;2.53;;;0.80;;
10430;SDS011;5262;59.958;17.726;2023-02-11T04:33:32;1.80;;;0.57;;
10430;SDS011;5262;59.958;17.726;2023-02-11T04:35:58;1.10;;;0.57;;
10430;SDS011;5262;59.958;17.726;2023-02-11T04:38:23;2.83;;;1.00;;
10430;SDS011;5262;59.958;17.726;2023-02-11T04:40:49;1.87;;;0.70;;
10430;SDS011;5262;59.958;17.726;2023-02-11T04:43:15;4.57;;;0.83;;
10430;SDS011;5262;59.958;17.726;2023-02-11T04:45:41;2.50;;;0.90;;
10430;SDS011;5262;59.958;17.726;2023-02-11T04:48:06;2.30;;;0.73;;
10430;SDS011;5262;59.958;17.726;2023-02-11T04:50:32;4.70;;;0.80;;
10430;SDS011;5262;59.958;17.726;2023-02-11T04:52:58;2.80;;;0.97;;
10430;SDS011;5262;59.958;17.726;2023-02-11T04:55:24;1.33;;;0.73;;
10430;SDS011;5262;59.958;17.726;2023-02-11T04:57:49;2.27;;;0.73;;
10430;SDS011;5262;59.958;17.726;2023-02-11T05:00:15;2.20;;;0.90;;
10430;SDS011;5262;59.958;17.726;2023-02-11T05:02:41;2.27;;;1.03;;
10430;SDS011;5262;59.958;17.726;2023-02-11T05:05:07;2.87;;;0.83;;
10430;SDS011;5262;59.958;17.726;2023-02-11T05:07:32;3.60;;;1.00;;
10430;SDS011;5262;59.958;17.726;2023-02-11T05:09:58;3.67;;;1.27;;
10430;SDS011;5262;59.958;17.726;2023-02-11T05:12:23;6.30;;;1.20;;
10430;SDS011;5262;59.958;17.726;2023-02-11T05:14:49;2.93;;;1.37;;
10430;SDS011;5262;59.958;17.726;2023-02-11T05:17:15;2.67;;;0.80;;
10430;SDS011;5262;59.958;17.726;2023-02-11T05:19:41;4.07;;;1.17;;
10430;SDS011;5262;59.958;17.726;2023-02-11T05:22:07;5.40;;;1.30;;
10430;SDS011;5262;59.958;17.726;2023-02-11T05:24:32;4.03;;;1.07;;
10430;SDS011;5262;59.958;17.726;2023-02-11T05:26:58;3.87;;;1.37;;
10430;SDS011;5262;59.958;17.726;2023-02-11T05:29:25;4.80;;;1.37;;
10430;SDS011;5262;59.958;17.726;2023-02-11T05:31:50;5.70;;;1.33;;
10430;SDS011;5262;59.958;17.726;2023-02-11T05:34:16;3.33;;;1.37;;
10430;SDS011;5262;59.958;17.726;2023-02-11T05:36:42;4.10;;;1.30;;
10430;SDS011;5262;59.958;17.726;2023-02-11T05:39:07;4.20;;;1.43;;
10430;SDS011;5262;59.958;17.726;2023-02-11T05:41:33;3.70;;;1.23;;
10430;SDS011;5262;59.958;17.726;2023-02-11T05:43:59;4.77;;;1.50;;
10430;SDS011;5262;59.958;17.726;2023-02-11T05:46:24;3.67;;;1.07;;
10430;SDS011;5262;59.958;17.726;2023-02-11T05:48:50;3.80;;;1.20;;
10430;SDS011;5262;59.958;17.726;2023-02-11T05:51:15;4.83;;;1.30;;
10430;SDS011;5262;59.958;17.726;2023-02-11T05:53:41;5.37;;;1.10;;
10430;SDS011;5262;59.958;17.726;2023-02-11T05:56:07;5.40;;;1.10;;
10430;SDS011;5262;59.958;17.726;2023-02-11T05:58:34;3.83;;;1.30;;
10430;SDS011;5262;59.958;17.726;2023-02-11T06:00:59;4.40;;;1.30;;
10430;SDS011;5262;59.958;17.726;2023-02-11T06:03:25;4.10;;;1.60;;
10430;SDS011;5262;59.958;17.726;2023-02-11T06:05:51;4.33;;;1.37;;
10430;SDS011;5262;59.958;17.726;2023-02-11T06:08:16;5.83;;;1.57;;
10430;SDS011;5262;59.958;17.726;2023-02-11T06:10:43;3.80;;;1.17;;
10430;SDS011;5262;59.958;17.726;2023-02-11T06:13:09;4.23;;;2.10;;
10430;SDS011;5262;59.958;17.726;2023-02-11T06:15:35;4.90;;;1.80;;
10430;SDS011;5262;59.958;17.726;2023-02-11T06:18:01;2.97;;;1.87;;
10430;SDS011;5262;59.958;17.726;2023-02-11T06:20:26;4.47;;;1.60;;
10430;SDS011;5262;59.958;17.726;2023-02-11T06:22:52;7.57;;;1.33;;
10430;SDS011;5262;59.958;17.726;2023-02-11T06:25:17;4.03;;;1.40;;
10430;SDS011;5262;59.958;17.726;2023-02-11T06:27:43;6.67;;;1.73;;
10430;SDS011;5262;59.958;17.726;2023-02-11T06:30:09;6.70;;;2.10;;
10430;SDS011;5262;59.958;17.726;2023-02-11T06:32:35;3.43;;;1.50;;
10430;SDS011;5262;59.958;17.726;2023-02-11T06:35:00;5.47;;;1.50;;
10430;SDS011;5262;59.958;17.726;2023-02-11T06:37:26;5.80;;;1.97;;
10430;SDS011;5262;59.958;17.726;2023-02-11T06:39:52;7.73;;;1.73;;
10430;SDS011;5262;59.958;17.726;2023-02-11T06:42:17;5.60;;;1.40;;
10430;SDS011;5262;59.958;17.726;2023-02-11T06:44:46;5.43;;;1.70;;
10430;SDS011;5262;59.958;17.726;2023-02-11T06:47:11;3.63;;;1.20;;
10430;SDS011;5262;59.958;17.726;2023-02-11T06:49:37;3.33;;;1.57;;
10430;SDS011;5262;59.958;17.726;2023-02-11T06:52:03;4.17;;;1.17;;
10430;SDS011;5262;59.958;17.726;2023-02-11T06:54:29;4.73;;;1.17;;
10430;SDS011;5262;59.958;17.726;2023-02-11T06:56:54;4.73;;;1.30;;
10430;SDS011;5262;59.958;17.726;2023-02-11T06:59:20;5.63;;;1.33;;
10430;SDS011;5262;59.958;17.726;2023-02-11T07:01:46;5.53;;;1.80;;
10430;SDS011;5262;59.958;17.726;2023-02-11T07:04:12;3.07;;;1.73;;
10430;SDS011;5262;59.958;17.726;2023-02-11T07:06:38;1.90;;;1.13;;
10430;SDS011;5262;59.958;17.726;2023-02-11T07:09:05;4.73;;;1.07;;
10430;SDS011;5262;59.958;17.726;2023-02-11T07:11:31;4.23;;;1.33;;
10430;SDS011;5262;59.958;17.726;2023-02-11T07:14:04;5.23;;;1.20;;
10430;SDS011;5262;59.958;17.726;2023-02-11T07:16:34;4.40;;;1.33;;
10430;SDS011;5262;59.958;17.726;2023-02-11T07:19:01;4.97;;;1.57;;
10430;SDS011;5262;59.958;17.726;2023-02-11T07:21:26;6.73;;;1.30;;
10430;SDS011;5262;59.958;17.726;2023-02-11T07:23:52;4.87;;;1.40;;
10430;SDS011;5262;59.958;17.726;2023-02-11T07:26:19;5.07;;;1.37;;
10430;SDS011;5262;59.958;17.726;2023-02-11T07:28:47;3.87;;;1.50;;
10430;SDS011;5262;59.958;17.726;2023-02-11T07:31:23;6.27;;;1.90;;
10430;SDS011;5262;59.958;17.726;2023-02-11T07:33:51;6.17;;;2.20;;
10430;SDS011;5262;59.958;17.726;2023-02-11T07:36:20;4.30;;;1.80;;
10430;SDS011;5262;59.958;17.726;2023-02-11T07:38:46;7.27;;;1.93;;
10430;SDS011;5262;59.958;17.726;2023-02-11T07:41:13;3.37;;;1.73;;
10430;SDS011;5262;59.958;17.726;2023-02-11T07:43:41;3.77;;;1.97;;
10430;SDS011;5262;59.958;17.726;2023-02-11T07:46:10;2.70;;;1.07;;
10430;SDS011;5262;59.958;17.726;2023-02-11T07:48:38;6.67;;;1.73;;
10430;SDS011;5262;59.958;17.726;2023-02-11T07:51:14;6.40;;;1.70;;
10430;SDS011;5262;59.958;17.726;2023-02-11T07:53:41;5.47;;;1.90;;
10430;SDS011;5262;59.958;17.726;2023-02-11T07:56:08;7.70;;;1.73;;
10430;SDS011;5262;59.958;17.726;2023-02-11T07:58:35;5.33;;;1.40;;
10430;SDS011;5262;59.958;17.726;2023-02-11T08:01:02;3.13;;;1.17;;
10430;SDS011;5262;59.958;17.726;2023-02-11T08:03:32;4.80;;;1.90;;
10430;SDS011;5262;59.958;17.726;2023-02-11T08:06:06;5.03;;;2.40;;
10430;SDS011;5262;59.958;17.726;2023-02-11T08:08:36;5.23;;;2.30;;
10430;SDS011;5262;59.958;17.726;2023-02-11T08:11:06;4.67;;;1.73;;
10430;SDS011;5262;59.958;17.726;2023-02-11T08:13:33;4.47;;;1.77;;
10430;SDS011;5262;59.958;17.726;2023-02-11T08:15:59;8.50;;;1.80;;
10430;SDS011;5262;59.958;17.726;2023-02-11T08:18:25;5.83;;;1.80;;
10430;SDS011;5262;59.958;17.726;2023-02-11T08:20:51;6.37;;;1.57;;
10430;SDS011;5262;59.958;17.726;2023-02-11T08:23:16;5.43;;;1.77;;
10430;SDS011;5262;59.958;17.726;2023-02-11T08:25:42;6.73;;;3.77;;
10430;SDS011;5262;59.958;17.726;2023-02-11T08:28:07;7.93;;;3.03;;
10430;SDS011;5262;59.958;17.726;2023-02-11T08:30:34;4.93;;;2.27;;
10430;SDS011;5262;59.958;17.726;2023-02-11T08:32:59;7.33;;;1.70;;
10430;SDS011;5262;59.958;17.726;2023-02-11T08:35:25;7.27;;;1.63;;
10430;SDS011;5262;59.958;17.726;2023-02-11T08:37:51;10.43;;;2.60;;
10430;SDS011;5262;59.958;17.726;2023-02-11T08:40:17;7.50;;;1.60;;
10430;SDS011;5262;59.958;17.726;2023-02-11T08:42:43;6.67;;;1.17;;
10430;SDS011;5262;59.958;17.726;2023-02-11T08:45:09;6.30;;;1.93;;
10430;SDS011;5262;59.958;17.726;2023-02-11T08:47:35;7.07;;;1.50;;
10430;SDS011;5262;59.958;17.726;2023-02-11T08:50:01;8.27;;;2.20;;
10430;SDS011;5262;59.958;17.726;2023-02-11T08:52:28;4.53;;;1.30;;
10430;SDS011;5262;59.958;17.726;2023-02-11T08:54:53;5.40;;;1.60;;
10430;SDS011;5262;59.958;17.726;2023-02-11T08:57:19;6.57;;;1.70;;
10430;SDS011;5262;59.958;17.726;2023-02-11T08:59:44;3.20;;;1.10;;
10430;SDS011;5262;59.958;17.726;2023-02-11T09:02:11;9.47;;;1.87;;
10430;SDS011;5262;59.958;17.726;2023-02-11T09:04:38;5.30;;;1.70;;
10430;SDS011;5262;59.958;17.726;2023-02-11T09:07:04;6.17;;;1.47;;
10430;SDS011;5262;59.958;17.726;2023-02-11T09:09:29;4.67;;;1.53;;
10430;SDS011;5262;59.958;17.726;2023-02-11T09:11:55;4.23;;;2.00;;
10430;SDS011;5262;59.958;17.726;2023-02-11T09:14:22;4.37;;;1.73;;
10430;SDS011;5262;59.958;17.726;2023-02-11T09:16:49;3.63;;;1.50;;
10430;SDS011;5262;59.958;17.726;2023-02-11T09:19:15;7.53;;;1.53;;
10430;SDS011;5262;59.958;17.726;2023-02-11T09:21:42;4.83;;;1.57;;
10430;SDS011;5262;59.958;17.726;2023-02-11T09:24:08;5.33;;;1.50;;
10430;SDS011;5262;59.958;17.726;2023-02-11T09:26:34;4.43;;;1.33;;
10430;SDS011;5262;59.958;17.726;2023-02-11T09:29:01;7.10;;;1.70;;
10430;SDS011;5262;59.958;17.726;2023-02-11T09:31:28;3.63;;;1.57;;
10430;SDS011;5262;59.958;17.726;2023-02-11T09:33:56;7.03;;;1.70;;
10430;SDS011;5262;59.958;17.726;2023-02-11T09:36:31;8.87;;;3.27;;
10430;SDS011;5262;59.958;17.726;2023-02-11T09:38:59;5.53;;;2.07;;
10430;SDS011;5262;59.958;17.726;2023-02-11T09:41:31;6.57;;;1.77;;
10430;SDS011;5262;59.958;17.726;2023-02-11T09:44:36;6.73;;;2.33;;
10430;SDS011;5262;59.958;17.726;2023-02-11T09:47:09;3.53;;;2.17;;
10430;SDS011;5262;59.958;17.726;2023-02-11T09:49:48;4.70;;;1.67;;
10430;SDS011;5262;59.958;17.726;2023-02-11T09:54:57;2.80;;;1.20;;
10430;SDS011;5262;59.958;17.726;2023-02-11T09:57:25;5.07;;;1.60;;
10430;SDS011;5262;59.958;17.726;2023-02-11T09:59:57;9.80;;;1.67;;
10430;SDS011;5262;59.958;17.726;2023-02-11T10:02:26;6.43;;;1.60;;
10430;SDS011;5262;59.958;17.726;2023-02-11T10:05:24;2.13;;;0.93;;
10430;SDS011;5262;59.958;17.726;2023-02-11T10:08:02;3.23;;;1.00;;
10430;SDS011;5262;59.958;17.726;2023-02-11T10:10:55;2.53;;;0.93;;
10430;SDS011;5262;59.958;17.726;2023-02-11T10:21:47;2.60;;;1.00;;
10430;SDS011;5262;59.958;17.726;2023-02-11T10:24:28;3.83;;;1.13;;
10430;SDS011;5262;59.958;17.726;2023-02-11T10:26:55;6.77;;;1.43;;
10430;SDS011;5262;59.958;17.726;2023-02-11T10:31:59;4.20;;;1.10;;
10430;SDS011;5262;59.958;17.726;2023-02-11T10:34:28;2.30;;;1.10;;
10430;SDS011;5262;59.958;17.726;2023-02-11T10:36:53;3.97;;;1.20;;
10430;SDS011;5262;59.958;17.726;2023-02-11T10:39:20;1.93;;;0.80;;
10430;SDS011;5262;59.958;17.726;2023-02-11T10:44:31;3.47;;;1.23;;
10430;SDS011;5262;59.958;17.726;2023-02-11T10:47:03;4.33;;;1.13;;
10430;SDS011;5262;59.958;17.726;2023-02-11T10:55:01;3.30;;;1.67;;
10430;SDS011;5262;59.958;17.726;2023-02-11T10:57:40;3.37;;;1.17;;
10430;SDS011;5262;59.958;17.726;2023-02-11T11:00:28;2.37;;;1.10;;
10430;SDS011;5262;59.958;17.726;2023-02-11T11:03:14;3.23;;;1.23;;
10430;SDS011;5262;59.958;17.726;2023-02-11T11:05:54;4.50;;;1.17;;
10430;SDS011;5262;59.958;17.726;2023-02-11T11:08:36;3.73;;;1.07;;
10430;SDS011;5262;59.958;17.726;2023-02-11T11:11:12;3.00;;;1.40;;
10430;SDS011;5262;59.958;17.726;2023-02-11T11:13:41;3.83;;;1.30;;
10430;SDS011;5262;59.958;17.726;2023-02-11T11:16:17;3.27;;;1.00;;
10430;SDS011;5262;59.958;17.726;2023-02-11T11:18:44;2.90;;;0.93;;
10430;SDS011;5262;59.958;17.726;2023-02-11T11:21:22;3.40;;;1.10;;
10430;SDS011;5262;59.958;17.726;2023-02-11T11:23:56;4.33;;;1.10;;
10430;SDS011;5262;59.958;17.726;2023-02-11T11:26:25;3.40;;;1.17;;
10430;SDS011;5262;59.958;17.726;2023-02-11T11:28:59;4.47;;;1.20;;
10430;SDS011;5262;59.958;17.726;2023-02-11T11:31:32;2.83;;;1.03;;
10430;SDS011;5262;59.958;17.726;2023-02-11T11:34:17;4.90;;;1.27;;
10430;SDS011;5262;59.958;17.726;2023-02-11T11:36:45;4.60;;;0.90;;
10430;SDS011;5262;59.958;17.726;2023-02-11T11:39:16;3.43;;;1.00;;
10430;SDS011;5262;59.958;17.726;2023-02-11T11:47:12;2.07;;;1.10;;
10430;SDS011;5262;59.958;17.726;2023-02-11T11:50:10;3.37;;;1.00;;
10430;SDS011;5262;59.958;17.726;2023-02-11T11:52:53;3.63;;;1.20;;
10430;SDS011;5262;59.958;17.726;2023-02-11T11:58:09;4.23;;;1.10;;
10430;SDS011;5262;59.958;17.726;2023-02-11T12:00:53;2.90;;;1.00;;
10430;SDS011;5262;59.958;17.726;2023-02-11T12:06:23;2.97;;;1.10;;
10430;SDS011;5262;59.958;17.726;2023-02-11T12:11:38;1.57;;;0.73;;
10430;SDS011;5262;59.958;17.726;2023-02-11T12:22:48;5.63;;;1.10;;
10430;SDS011;5262;59.958;17.726;2023-02-11T12:25:28;2.67;;;0.90;;
10430;SDS011;5262;59.958;17.726;2023-02-11T12:45:15;2.07;;;0.90;;
10430;SDS011;5262;59.958;17.726;2023-02-11T12:53:54;4.13;;;1.30;;
10430;SDS011;5262;59.958;17.726;2023-02-11T13:00:03;3.37;;;1.00;;
10430;SDS011;5262;59.958;17.726;2023-02-11T13:05:18;3.57;;;1.30;;
10430;SDS011;5262;59.958;17.726;2023-02-11T13:07:46;3.20;;;0.90;;
10430;SDS011;5262;59.958;17.726;2023-02-11T13:10:34;3.97;;;1.50;;
10430;SDS011;5262;59.958;17.726;2023-02-11T13:13:13;2.70;;;1.17;;
10430;SDS011;5262;59.958;17.726;2023-02-11T13:16:02;6.17;;;1.60;;
10430;SDS011;5262;59.958;17.726;2023-02-11T13:18:43;1.70;;;0.70;;
10430;SDS011;5262;59.958;17.726;2023-02-11T13:21:23;3.17;;;1.03;;
10430;SDS011;5262;59.958;17.726;2023-02-11T13:29:25;2.23;;;0.80;;
10430;SDS011;5262;59.958;17.726;2023-02-11T13:32:11;4.03;;;1.20;;
10430;SDS011;5262;59.958;17.726;2023-02-11T13:40:02;2.77;;;0.93;;
10430;SDS011;5262;59.958;17.726;2023-02-11T13:42:55;5.03;;;1.10;;
10430;SDS011;5262;59.958;17.726;2023-02-11T13:45:42;2.43;;;1.17;;
10430;SDS011;5262;59.958;17.726;2023-02-11T13:48:19;3.37;;;1.03;;
10430;SDS011;5262;59.958;17.726;2023-02-11T13:50:48;1.37;;;1.10;;
10430;SDS011;5262;59.958;17.726;2023-02-11T13:53:20;3.07;;;1.00;;
10430;SDS011;5262;59.958;17.726;2023-02-11T13:55:48;3.47;;;0.90;;
10430;SDS011;5262;59.958;17.726;2023-02-11T13:58:18;3.63;;;0.97;;
10430;SDS011;5262;59.958;17.726;2023-02-11T14:00:53;4.80;;;1.40;;
10430;SDS011;5262;59.958;17.726;2023-02-11T14:03:23;4.93;;;1.07;;
10430;SDS011;5262;59.958;17.726;2023-02-11T14:06:29;3.20;;;0.87;;
10430;SDS011;5262;59.958;17.726;2023-02-11T14:11:48;2.63;;;1.10;;
10430;SDS011;5262;59.958;17.726;2023-02-11T14:22:02;4.67;;;1.50;;
10430;SDS011;5262;59.958;17.726;2023-02-11T14:27:26;2.73;;;1.03;;
10430;SDS011;5262;59.958;17.726;2023-02-11T14:30:09;2.77;;;1.17;;
10430;SDS011;5262;59.958;17.726;2023-02-11T14:33:05;5.67;;;1.23;;
10430;SDS011;5262;59.958;17.726;2023-02-11T14:36:14;4.10;;;1.67;;
10430;SDS011;5262;59.958;17.726;2023-02-11T14:41:47;2.50;;;1.13;;
10430;SDS011;5262;59.958;17.726;2023-02-11T14:46:46;1.93;;;0.90;;
10430;SDS011;5262;59.958;17.726;2023-02-11T14:49:27;2.27;;;1.10;;
10430;SDS011;5262;59.958;17.726;2023-02-11T14:52:03;4.60;;;1.13;;
10430;SDS011;5262;59.958;17.726;2023-02-11T14:54:38;6.30;;;1.20;;
10430;SDS011;5262;59.958;17.726;2023-02-11T14:59:38;3.80;;;1.70;;
10430;SDS011;5262;59.958;17.726;2023-02-11T15:02:20;3.03;;;1.00;;
10430;SDS011;5262;59.958;17.726;2023-02-11T15:04:47;3.80;;;1.50;;
10430;SDS011;5262;59.958;17.726;2023-02-11T15:07:13;7.40;;;1.70;;
10430;SDS011;5262;59.958;17.726;2023-02-11T15:09:40;8.37;;;2.37;;
10430;SDS011;5262;59.958;17.726;2023-02-11T15:12:29;10.13;;;3.97;;
10430;SDS011;5262;59.958;17.726;2023-02-11T15:14:56;14.50;;;5.90;;
10430;SDS011;5262;59.958;17.726;2023-02-11T15:17:25;11.97;;;4.47;;
10430;SDS011;5262;59.958;17.726;2023-02-11T15:19:54;11.37;;;4.50;;
10430;SDS011;5262;59.958;17.726;2023-02-11T15:22:23;8.93;;;3.70;;
10430;SDS011;5262;59.958;17.726;2023-02-11T15:27:25;6.13;;;2.00;;
10430;SDS011;5262;59.958;17.726;2023-02-11T15:29:51;3.10;;;1.60;;
10430;SDS011;5262;59.958;17.726;2023-02-11T15:32:18;3.87;;;1.50;;
10430;SDS011;5262;59.958;17.726;2023-02-11T15:34:46;3.80;;;1.37;;
10430;SDS011;5262;59.958;17.726;2023-02-11T15:37:16;3.63;;;1.50;;
10430;SDS011;5262;59.958;17.726;2023-02-11T15:39:48;3.43;;;1.33;;
10430;SDS011;5262;59.958;17.726;2023-02-11T15:44:41;3.30;;;1.30;;
10430;SDS011;5262;59.958;17.726;2023-02-11T15:47:11;4.03;;;2.07;;
10430;SDS011;5262;59.958;17.726;2023-02-11T15:49:42;7.17;;;3.37;;
10430;SDS011;5262;59.958;17.726;2023-02-11T15:52:09;7.13;;;3.20;;
10430;SDS011;5262;59.958;17.726;2023-02-11T15:54:38;7.90;;;3.27;;
10430;SDS011;5262;59.958;17.726;2023-02-11T15:57:06;6.57;;;2.83;;
10430;SDS011;5262;59.958;17.726;2023-02-11T15:59:38;6.30;;;2.50;;
10430;SDS011;5262;59.958;17.726;2023-02-11T16:02:17;5.53;;;2.47;;
10430;SDS011;5262;59.958;17.726;2023-02-11T16:04:52;2.67;;;1.90;;
10430;SDS011;5262;59.958;17.726;2023-02-11T16:07:41;4.40;;;1.70;;
10430;SDS011;5262;59.958;17.726;2023-02-11T16:18:03;6.87;;;2.80;;
10430;SDS011;5262;59.958;17.726;2023-02-11T16:20:38;3.87;;;2.37;;
10430;SDS011;5262;59.958;17.726;2023-02-11T16:23:04;10.90;;;4.50;;
10430;SDS011;5262;59.958;17.726;2023-02-11T16:25:33;9.03;;;3.13;;
10430;SDS011;5262;59.958;17.726;2023-02-11T16:27:59;8.03;;;3.40;;
10430;SDS011;5262;59.958;17.726;2023-02-11T16:30:32;6.03;;;2.90;;
10430;SDS011;5262;59.958;17.726;2023-02-11T16:33:01;6.57;;;3.30;;
10430;SDS011;5262;59.958;17.726;2023-02-11T16:35:28;7.10;;;3.20;;
10430;SDS011;5262;59.958;17.726;2023-02-11T16:37:54;7.93;;;3.20;;
10430;SDS011;5262;59.958;17.726;2023-02-11T16:40:19;6.50;;;4.17;;
10430;SDS011;5262;59.958;17.726;2023-02-11T16:42:47;8.73;;;4.17;;
10430;SDS011;5262;59.958;17.726;2023-02-11T16:45:13;7.60;;;4.90;;
10430;SDS011;5262;59.958;17.726;2023-02-11T16:47:40;11.07;;;7.30;;
10430;SDS011;5262;59.958;17.726;2023-02-11T16:50:08;10.70;;;5.83;;
10430;SDS011;5262;59.958;17.726;2023-02-11T16:52:35;23.63;;;11.23;;
10430;SDS011;5262;59.958;17.726;2023-02-11T16:55:02;34.87;;;18.70;;
10430;SDS011;5262;59.958;17.726;2023-02-11T16:57:29;37.77;;;19.57;;
10430;SDS011;5262;59.958;17.726;2023-02-11T16:59:56;35.90;;;19.70;;
10430;SDS011;5262;59.958;17.726;2023-02-11T17:02:27;32.07;;;15.97;;
10430;SDS011;5262;59.958;17.726;2023-02-11T17:04:57;16.73;;;8.53;;
10430;SDS011;5262;59.958;17.726;2023-02-11T17:07:24;13.80;;;7.57;;
10430;SDS011;5262;59.958;17.726;2023-02-11T17:09:50;10.87;;;5.43;;
10430;SDS011;5262;59.958;17.726;2023-02-11T17:12:16;8.70;;;4.30;;
10430;SDS011;5262;59.958;17.726;2023-02-11T17:14:42;9.17;;;4.00;;
10430;SDS011;5262;59.958;17.726;2023-02-11T17:17:09;7.47;;;3.83;;
10430;SDS011;5262;59.958;17.726;2023-02-11T17:19:35;4.93;;;2.43;;
10430;SDS011;5262;59.958;17.726;2023-02-11T17:22:01;5.30;;;3.00;;
10430;SDS011;5262;59.958;17.726;2023-02-11T17:24:27;5.13;;;3.10;;
10430;SDS011;5262;59.958;17.726;2023-02-11T17:26:53;4.70;;;2.80;;
10430;SDS011;5262;59.958;17.726;2023-02-11T17:29:20;9.40;;;4.47;;
10430;SDS011;5262;59.958;17.726;2023-02-11T17:31:47;9.73;;;3.90;;
10430;SDS011;5262;59.958;17.726;2023-02-11T17:34:13;7.00;;;3.53;;
10430;SDS011;5262;59.958;17.726;2023-02-11T17:36:38;9.53;;;4.23;;
10430;SDS011;5262;59.958;17.726;2023-02-11T17:39:07;9.23;;;5.87;;